sensor_id;sensor_type;location;lat;lon;timestamp;P1;durP1;ratioP1;P2;durP2;ratioP2
51654;SDS011;37732;53.106;7.030;2023-01-28T00:01:19;8.95;;;6.82;;
51654;SDS011;37732;53.106;7.030;2023-01-28T00:03:48;7.93;;;7.13;;
51654;SDS011;37732;53.106;7.030;2023-01-28T00:06:15;7.97;;;6.47;;
51654;SDS011;37732;53.106;7.030;2023-01-28T00:08:41;8.65;;;7.18;;
51654;SDS011;37732;53.106;7.030;2023-01-28T00:11:07;8.18;;;7.00;;
51654;SDS011;37732;53.106;7.030;2023-01-28T00:13:35;8.32;;;7.50;;
51654;SDS011;37732;53.106;7.030;2023-01-28T00:16:02;8.30;;;7.50;;
51654;SDS011;37732;53.106;7.030;2023-01-28T00:18:29;8.73;;;7.60;;
51654;SDS011;37732;53.106;7.030;2023-01-28T00:23:38;7.95;;;7.15;;
51654;SDS011;37732;53.106;7.030;2023-01-28T00:26:06;9.25;;;8.25;;
51654;SDS011;37732;53.106;7.030;2023-01-28T00:28:36;8.45;;;7.65;;
51654;SDS011;37732;53.106;7.030;2023-01-28T00:31:08;9.15;;;8.05;;
51654;SDS011;37732;53.106;7.030;2023-01-28T00:33:41;8.55;;;7.65;;
51654;SDS011;37732;53.106;7.030;2023-01-28T00:36:08;15.13;;;8.75;;
51654;SDS011;37732;53.106;7.030;2023-01-28T00:38:34;9.15;;;8.25;;
51654;SDS011;37732;53.106;7.030;2023-01-28T00:41:13;10.00;;;8.73;;
51654;SDS011;37732;53.106;7.030;2023-01-28T00:43:41;10.23;;;9.23;;
51654;SDS011;37732;53.106;7.030;2023-01-28T00:46:07;9.55;;;8.65;;
51654;SDS011;37732;53.106;7.030;2023-01-28T00:48:34;8.93;;;8.02;;
51654;SDS011;37732;53.106;7.030;2023-01-28T00:51:04;9.43;;;8.43;;
51654;SDS011;37732;53.106;7.030;2023-01-28T00:53:31;9.35;;;8.05;;
51654;SDS011;37732;53.106;7.030;2023-01-28T00:55:59;9.48;;;8.57;;
51654;SDS011;37732;53.106;7.030;2023-01-28T00:58:25;8.50;;;7.60;;
51654;SDS011;37732;53.106;7.030;2023-01-28T01:00:50;7.65;;;6.78;;
51654;SDS011;37732;53.106;7.030;2023-01-28T01:03:17;6.80;;;6.10;;
51654;SDS011;37732;53.106;7.030;2023-01-28T01:05:43;8.43;;;6.38;;
51654;SDS011;37732;53.106;7.030;2023-01-28T01:08:10;7.30;;;6.10;;
51654;SDS011;37732;53.106;7.030;2023-01-28T01:10:36;9.63;;;7.93;;
51654;SDS011;37732;53.106;7.030;2023-01-28T01:13:02;7.32;;;6.55;;
51654;SDS011;37732;53.106;7.030;2023-01-28T01:15:30;7.28;;;5.68;;
51654;SDS011;37732;53.106;7.030;2023-01-28T01:17:55;8.15;;;6.10;;
51654;SDS011;37732;53.106;7.030;2023-01-28T01:20:23;6.57;;;5.75;;
51654;SDS011;37732;53.106;7.030;2023-01-28T01:22:51;5.63;;;4.95;;
51654;SDS011;37732;53.106;7.030;2023-01-28T01:25:18;5.85;;;4.70;;
51654;SDS011;37732;53.106;7.030;2023-01-28T01:27:44;6.45;;;5.15;;
51654;SDS011;37732;53.106;7.030;2023-01-28T01:30:13;6.47;;;5.28;;
51654;SDS011;37732;53.106;7.030;2023-01-28T01:32:39;8.20;;;5.50;;
51654;SDS011;37732;53.106;7.030;2023-01-28T01:35:05;7.82;;;5.28;;
51654;SDS011;37732;53.106;7.030;2023-01-28T01:37:32;6.93;;;5.28;;
51654;SDS011;37732;53.106;7.030;2023-01-28T01:39:58;7.93;;;6.10;;
51654;SDS011;37732;53.106;7.030;2023-01-28T01:42:26;6.03;;;5.22;;
51654;SDS011;37732;53.106;7.030;2023-01-28T01:47:30;6.55;;;5.03;;
51654;SDS011;37732;53.106;7.030;2023-01-28T01:49:57;6.93;;;5.13;;
51654;SDS011;37732;53.106;7.030;2023-01-28T01:52:27;6.97;;;5.53;;
51654;SDS011;37732;53.106;7.030;2023-01-28T01:54:58;7.57;;;5.65;;
51654;SDS011;37732;53.106;7.030;2023-01-28T01:57:27;8.13;;;5.78;;
51654;SDS011;37732;53.106;7.030;2023-01-28T01:59:56;6.07;;;5.05;;
51654;SDS011;37732;53.106;7.030;2023-01-28T02:02:31;7.93;;;5.63;;
51654;SDS011;37732;53.106;7.030;2023-01-28T02:04:59;10.27;;;5.75;;
51654;SDS011;37732;53.106;7.030;2023-01-28T02:07:25;7.10;;;5.30;;
51654;SDS011;37732;53.106;7.030;2023-01-28T02:09:51;7.03;;;5.28;;
51654;SDS011;37732;53.106;7.030;2023-01-28T02:12:18;6.65;;;5.40;;
51654;SDS011;37732;53.106;7.030;2023-01-28T02:14:57;8.93;;;5.85;;
51654;SDS011;37732;53.106;7.030;2023-01-28T02:17:26;6.90;;;5.60;;
51654;SDS011;37732;53.106;7.030;2023-01-28T02:20:12;6.43;;;5.60;;
51654;SDS011;37732;53.106;7.030;2023-01-28T02:30:45;9.25;;;5.72;;
51654;SDS011;37732;53.106;7.030;2023-01-28T02:33:28;7.13;;;5.68;;
51654;SDS011;37732;53.106;7.030;2023-01-28T02:36:01;6.15;;;5.15;;
51654;SDS011;37732;53.106;7.030;2023-01-28T02:38:36;6.38;;;5.55;;
51654;SDS011;37732;53.106;7.030;2023-01-28T02:41:08;7.28;;;5.72;;
51654;SDS011;37732;53.106;7.030;2023-01-28T02:43:40;8.07;;;5.70;;
51654;SDS011;37732;53.106;7.030;2023-01-28T02:46:50;7.07;;;5.75;;
51654;SDS011;37732;53.106;7.030;2023-01-28T02:49:24;7.22;;;5.75;;
51654;SDS011;37732;53.106;7.030;2023-01-28T02:54:36;8.35;;;5.65;;
51654;SDS011;37732;53.106;7.030;2023-01-28T03:00:00;6.85;;;5.72;;
51654;SDS011;37732;53.106;7.030;2023-01-28T03:02:35;8.23;;;5.97;;
51654;SDS011;37732;53.106;7.030;2023-01-28T03:05:16;6.82;;;5.60;;
51654;SDS011;37732;53.106;7.030;2023-01-28T03:07:47;7.00;;;5.53;;
51654;SDS011;37732;53.106;7.030;2023-01-28T03:10:15;6.95;;;5.60;;
51654;SDS011;37732;53.106;7.030;2023-01-28T03:12:44;6.65;;;5.57;;
51654;SDS011;37732;53.106;7.030;2023-01-28T03:15:36;6.47;;;5.40;;
51654;SDS011;37732;53.106;7.030;2023-01-28T03:21:33;7.18;;;5.75;;
51654;SDS011;37732;53.106;7.030;2023-01-28T03:24:25;6.97;;;5.82;;
51654;SDS011;37732;53.106;7.030;2023-01-28T03:27:32;7.45;;;6.07;;
51654;SDS011;37732;53.106;7.030;2023-01-28T03:30:26;7.07;;;5.80;;
51654;SDS011;37732;53.106;7.030;2023-01-28T03:33:15;8.68;;;6.05;;
51654;SDS011;37732;53.106;7.030;2023-01-28T03:36:00;7.57;;;6.20;;
51654;SDS011;37732;53.106;7.030;2023-01-28T03:38:45;7.28;;;5.80;;
51654;SDS011;37732;53.106;7.030;2023-01-28T03:41:12;7.80;;;6.13;;
51654;SDS011;37732;53.106;7.030;2023-01-28T03:43:47;7.40;;;6.00;;
51654;SDS011;37732;53.106;7.030;2023-01-28T03:46:14;9.70;;;7.13;;
51654;SDS011;37732;53.106;7.030;2023-01-28T03:48:40;7.13;;;5.70;;
51654;SDS011;37732;53.106;7.030;2023-01-28T03:51:05;8.15;;;6.40;;
51654;SDS011;37732;53.106;7.030;2023-01-28T03:53:31;7.53;;;6.25;;
51654;SDS011;37732;53.106;7.030;2023-01-28T03:55:57;7.85;;;5.88;;
51654;SDS011;37732;53.106;7.030;2023-01-28T03:58:23;8.02;;;6.32;;
51654;SDS011;37732;53.106;7.030;2023-01-28T04:01:10;8.18;;;6.47;;
51654;SDS011;37732;53.106;7.030;2023-01-28T04:03:39;10.93;;;6.43;;
51654;SDS011;37732;53.106;7.030;2023-01-28T04:06:06;7.22;;;6.50;;
51654;SDS011;37732;53.106;7.030;2023-01-28T04:08:33;7.75;;;6.95;;
51654;SDS011;37732;53.106;7.030;2023-01-28T04:10:59;8.48;;;6.60;;
51654;SDS011;37732;53.106;7.030;2023-01-28T04:13:42;8.00;;;7.05;;
51654;SDS011;37732;53.106;7.030;2023-01-28T04:16:09;9.10;;;6.43;;
51654;SDS011;37732;53.106;7.030;2023-01-28T04:18:36;7.72;;;6.32;;
51654;SDS011;37732;53.106;7.030;2023-01-28T04:21:02;8.77;;;6.93;;
51654;SDS011;37732;53.106;7.030;2023-01-28T04:23:27;8.20;;;6.70;;
51654;SDS011;37732;53.106;7.030;2023-01-28T04:25:56;8.45;;;6.47;;
51654;SDS011;37732;53.106;7.030;2023-01-28T04:28:21;9.93;;;6.90;;
51654;SDS011;37732;53.106;7.030;2023-01-28T04:30:47;9.30;;;6.32;;
51654;SDS011;37732;53.106;7.030;2023-01-28T04:33:13;7.15;;;5.72;;
51654;SDS011;37732;53.106;7.030;2023-01-28T04:35:39;8.95;;;6.15;;
51654;SDS011;37732;53.106;7.030;2023-01-28T04:38:05;7.88;;;5.82;;
51654;SDS011;37732;53.106;7.030;2023-01-28T04:40:31;7.70;;;6.22;;
51654;SDS011;37732;53.106;7.030;2023-01-28T04:42:57;7.32;;;6.03;;
51654;SDS011;37732;53.106;7.030;2023-01-28T04:45:23;7.65;;;5.32;;
51654;SDS011;37732;53.106;7.030;2023-01-28T04:47:49;8.32;;;6.40;;
51654;SDS011;37732;53.106;7.030;2023-01-28T04:50:15;7.05;;;5.55;;
51654;SDS011;37732;53.106;7.030;2023-01-28T04:52:41;7.38;;;5.82;;
51654;SDS011;37732;53.106;7.030;2023-01-28T04:55:07;6.85;;;5.50;;
51654;SDS011;37732;53.106;7.030;2023-01-28T04:57:33;7.55;;;5.65;;
51654;SDS011;37732;53.106;7.030;2023-01-28T04:59:58;7.35;;;6.03;;
51654;SDS011;37732;53.106;7.030;2023-01-28T05:02:24;8.98;;;5.90;;
51654;SDS011;37732;53.106;7.030;2023-01-28T05:04:50;8.02;;;5.28;;
51654;SDS011;37732;53.106;7.030;2023-01-28T05:07:15;9.48;;;6.20;;
51654;SDS011;37732;53.106;7.030;2023-01-28T05:09:41;8.43;;;6.30;;
51654;SDS011;37732;53.106;7.030;2023-01-28T05:12:07;6.95;;;5.50;;
51654;SDS011;37732;53.106;7.030;2023-01-28T05:14:32;8.98;;;6.38;;
51654;SDS011;37732;53.106;7.030;2023-01-28T05:16:58;7.75;;;6.47;;
51654;SDS011;37732;53.106;7.030;2023-01-28T05:19:24;9.27;;;6.05;;
51654;SDS011;37732;53.106;7.030;2023-01-28T05:21:49;6.90;;;6.13;;
51654;SDS011;37732;53.106;7.030;2023-01-28T05:24:15;7.18;;;5.95;;
51654;SDS011;37732;53.106;7.030;2023-01-28T05:26:40;9.45;;;6.10;;
51654;SDS011;37732;53.106;7.030;2023-01-28T05:29:06;7.90;;;6.63;;
51654;SDS011;37732;53.106;7.030;2023-01-28T05:31:32;7.88;;;6.50;;
51654;SDS011;37732;53.106;7.030;2023-01-28T05:34:01;7.38;;;5.80;;
51654;SDS011;37732;53.106;7.030;2023-01-28T05:36:27;9.63;;;6.15;;
51654;SDS011;37732;53.106;7.030;2023-01-28T05:38:53;7.03;;;5.95;;
51654;SDS011;37732;53.106;7.030;2023-01-28T05:41:18;6.70;;;5.93;;
51654;SDS011;37732;53.106;7.030;2023-01-28T05:43:44;8.20;;;6.65;;
51654;SDS011;37732;53.106;7.030;2023-01-28T05:46:09;9.02;;;7.15;;
51654;SDS011;37732;53.106;7.030;2023-01-28T05:48:35;10.50;;;6.30;;
51654;SDS011;37732;53.106;7.030;2023-01-28T05:51:01;8.55;;;6.53;;
51654;SDS011;37732;53.106;7.030;2023-01-28T05:53:26;9.65;;;6.65;;
51654;SDS011;37732;53.106;7.030;2023-01-28T05:55:52;9.35;;;7.35;;
51654;SDS011;37732;53.106;7.030;2023-01-28T05:58:18;9.13;;;7.05;;
51654;SDS011;37732;53.106;7.030;2023-01-28T06:00:44;9.23;;;7.18;;
51654;SDS011;37732;53.106;7.030;2023-01-28T06:03:11;9.30;;;7.20;;
51654;SDS011;37732;53.106;7.030;2023-01-28T06:05:36;9.27;;;7.28;;
51654;SDS011;37732;53.106;7.030;2023-01-28T06:08:02;8.13;;;6.88;;
51654;SDS011;37732;53.106;7.030;2023-01-28T06:10:28;9.27;;;7.25;;
51654;SDS011;37732;53.106;7.030;2023-01-28T06:12:54;7.95;;;7.15;;
51654;SDS011;37732;53.106;7.030;2023-01-28T06:15:20;10.85;;;7.90;;
51654;SDS011;37732;53.106;7.030;2023-01-28T06:17:45;9.27;;;8.00;;
51654;SDS011;37732;53.106;7.030;2023-01-28T06:20:11;9.02;;;7.57;;
51654;SDS011;37732;53.106;7.030;2023-01-28T06:22:37;12.18;;;8.98;;
51654;SDS011;37732;53.106;7.030;2023-01-28T06:25:02;9.98;;;8.73;;
51654;SDS011;37732;53.106;7.030;2023-01-28T06:27:28;9.55;;;8.35;;
51654;SDS011;37732;53.106;7.030;2023-01-28T06:29:54;11.27;;;7.78;;
51654;SDS011;37732;53.106;7.030;2023-01-28T06:32:20;10.18;;;8.60;;
51654;SDS011;37732;53.106;7.030;2023-01-28T06:34:45;9.13;;;8.13;;
51654;SDS011;37732;53.106;7.030;2023-01-28T06:37:12;10.88;;;8.98;;
51654;SDS011;37732;53.106;7.030;2023-01-28T06:39:38;10.30;;;8.13;;
51654;SDS011;37732;53.106;7.030;2023-01-28T06:42:03;10.98;;;9.20;;
51654;SDS011;37732;53.106;7.030;2023-01-28T06:44:29;10.30;;;9.20;;
51654;SDS011;37732;53.106;7.030;2023-01-28T06:46:55;9.73;;;8.73;;
51654;SDS011;37732;53.106;7.030;2023-01-28T06:49:20;10.10;;;8.38;;
51654;SDS011;37732;53.106;7.030;2023-01-28T06:51:46;10.85;;;8.88;;
51654;SDS011;37732;53.106;7.030;2023-01-28T06:54:12;9.93;;;8.93;;
51654;SDS011;37732;53.106;7.030;2023-01-28T06:56:38;10.55;;;8.57;;
51654;SDS011;37732;53.106;7.030;2023-01-28T06:59:04;9.45;;;8.45;;
51654;SDS011;37732;53.106;7.030;2023-01-28T07:01:29;9.88;;;8.82;;
51654;SDS011;37732;53.106;7.030;2023-01-28T07:03:55;10.00;;;8.68;;
51654;SDS011;37732;53.106;7.030;2023-01-28T07:06:21;11.82;;;9.43;;
51654;SDS011;37732;53.106;7.030;2023-01-28T07:08:48;11.05;;;9.43;;
51654;SDS011;37732;53.106;7.030;2023-01-28T07:11:14;12.43;;;10.68;;
51654;SDS011;37732;53.106;7.030;2023-01-28T07:13:40;13.77;;;11.50;;
51654;SDS011;37732;53.106;7.030;2023-01-28T07:16:06;12.85;;;10.68;;
51654;SDS011;37732;53.106;7.030;2023-01-28T07:18:32;20.83;;;10.93;;
51654;SDS011;37732;53.106;7.030;2023-01-28T07:20:57;12.05;;;10.85;;
51654;SDS011;37732;53.106;7.030;2023-01-28T07:23:23;13.18;;;11.27;;
51654;SDS011;37732;53.106;7.030;2023-01-28T07:25:49;11.93;;;10.68;;
51654;SDS011;37732;53.106;7.030;2023-01-28T07:28:15;12.95;;;11.45;;
51654;SDS011;37732;53.106;7.030;2023-01-28T07:30:46;12.07;;;10.77;;
51654;SDS011;37732;53.106;7.030;2023-01-28T07:33:13;13.50;;;12.05;;
51654;SDS011;37732;53.106;7.030;2023-01-28T07:35:39;12.95;;;11.35;;
51654;SDS011;37732;53.106;7.030;2023-01-28T07:38:04;13.88;;;12.00;;
51654;SDS011;37732;53.106;7.030;2023-01-28T07:40:30;14.00;;;12.40;;
51654;SDS011;37732;53.106;7.030;2023-01-28T07:42:55;12.50;;;11.18;;
51654;SDS011;37732;53.106;7.030;2023-01-28T07:45:22;12.85;;;11.55;;
51654;SDS011;37732;53.106;7.030;2023-01-28T07:47:52;13.93;;;12.52;;
51654;SDS011;37732;53.106;7.030;2023-01-28T07:50:22;14.70;;;13.25;;
51654;SDS011;37732;53.106;7.030;2023-01-28T07:52:49;16.20;;;14.20;;
51654;SDS011;37732;53.106;7.030;2023-01-28T07:55:15;14.52;;;13.00;;
51654;SDS011;37732;53.106;7.030;2023-01-28T07:57:50;17.05;;;15.25;;
51654;SDS011;37732;53.106;7.030;2023-01-28T08:00:18;15.10;;;13.52;;
51654;SDS011;37732;53.106;7.030;2023-01-28T08:02:45;15.05;;;12.70;;
51654;SDS011;37732;53.106;7.030;2023-01-28T08:05:15;14.07;;;12.65;;
51654;SDS011;37732;53.106;7.030;2023-01-28T08:07:42;13.60;;;12.20;;
51654;SDS011;37732;53.106;7.030;2023-01-28T08:10:09;14.18;;;12.75;;
51654;SDS011;37732;53.106;7.030;2023-01-28T08:12:39;14.65;;;11.80;;
51654;SDS011;37732;53.106;7.030;2023-01-28T08:15:04;14.27;;;12.77;;
51654;SDS011;37732;53.106;7.030;2023-01-28T08:17:31;12.85;;;11.43;;
51654;SDS011;37732;53.106;7.030;2023-01-28T08:19:57;13.55;;;12.20;;
51654;SDS011;37732;53.106;7.030;2023-01-28T08:22:23;13.43;;;12.13;;
51654;SDS011;37732;53.106;7.030;2023-01-28T08:24:50;12.90;;;11.55;;
51654;SDS011;37732;53.106;7.030;2023-01-28T08:27:15;12.57;;;11.27;;
51654;SDS011;37732;53.106;7.030;2023-01-28T08:29:41;13.23;;;11.93;;
51654;SDS011;37732;53.106;7.030;2023-01-28T08:32:07;13.23;;;11.88;;
51654;SDS011;37732;53.106;7.030;2023-01-28T08:34:33;12.40;;;11.20;;
51654;SDS011;37732;53.106;7.030;2023-01-28T08:36:59;13.70;;;10.68;;
51654;SDS011;37732;53.106;7.030;2023-01-28T08:39:25;11.52;;;10.32;;
51654;SDS011;37732;53.106;7.030;2023-01-28T08:41:51;13.77;;;11.23;;
51654;SDS011;37732;53.106;7.030;2023-01-28T08:44:17;12.13;;;10.40;;
51654;SDS011;37732;53.106;7.030;2023-01-28T08:46:42;12.10;;;10.90;;
51654;SDS011;37732;53.106;7.030;2023-01-28T08:49:08;11.20;;;10.05;;
51654;SDS011;37732;53.106;7.030;2023-01-28T08:51:33;12.40;;;11.10;;
51654;SDS011;37732;53.106;7.030;2023-01-28T08:53:59;11.98;;;10.57;;
51654;SDS011;37732;53.106;7.030;2023-01-28T08:56:26;12.73;;;11.43;;
51654;SDS011;37732;53.106;7.030;2023-01-28T08:58:51;13.57;;;12.10;;
51654;SDS011;37732;53.106;7.030;2023-01-28T09:01:17;14.65;;;12.77;;
51654;SDS011;37732;53.106;7.030;2023-01-28T09:03:42;15.02;;;12.77;;
51654;SDS011;37732;53.106;7.030;2023-01-28T09:06:08;13.57;;;12.18;;
51654;SDS011;37732;53.106;7.030;2023-01-28T09:08:34;16.67;;;12.27;;
51654;SDS011;37732;53.106;7.030;2023-01-28T09:11:00;14.73;;;12.68;;
51654;SDS011;37732;53.106;7.030;2023-01-28T09:13:26;14.77;;;12.70;;
51654;SDS011;37732;53.106;7.030;2023-01-28T09:15:52;14.27;;;12.68;;
51654;SDS011;37732;53.106;7.030;2023-01-28T09:18:18;13.98;;;12.27;;
51654;SDS011;37732;53.106;7.030;2023-01-28T09:20:44;16.10;;;13.15;;
51654;SDS011;37732;53.106;7.030;2023-01-28T09:23:10;14.32;;;12.38;;
51654;SDS011;37732;53.106;7.030;2023-01-28T09:25:36;16.52;;;12.18;;
51654;SDS011;37732;53.106;7.030;2023-01-28T09:28:02;15.93;;;12.43;;
51654;SDS011;37732;53.106;7.030;2023-01-28T09:30:29;14.20;;;12.30;;
51654;SDS011;37732;53.106;7.030;2023-01-28T09:32:55;16.08;;;13.88;;
51654;SDS011;37732;53.106;7.030;2023-01-28T09:35:22;14.13;;;12.63;;
51654;SDS011;37732;53.106;7.030;2023-01-28T09:37:49;17.00;;;11.98;;
51654;SDS011;37732;53.106;7.030;2023-01-28T09:40:18;13.25;;;11.88;;
51654;SDS011;37732;53.106;7.030;2023-01-28T09:45:35;11.40;;;9.82;;
51654;SDS011;37732;53.106;7.030;2023-01-28T09:48:09;14.35;;;10.93;;
51654;SDS011;37732;53.106;7.030;2023-01-28T09:53:12;12.45;;;11.02;;
51654;SDS011;37732;53.106;7.030;2023-01-28T09:55:45;12.70;;;10.32;;
51654;SDS011;37732;53.106;7.030;2023-01-28T09:58:25;11.35;;;10.15;;
51654;SDS011;37732;53.106;7.030;2023-01-28T10:04:25;12.32;;;9.43;;
51654;SDS011;37732;53.106;7.030;2023-01-28T10:07:20;12.75;;;10.05;;
51654;SDS011;37732;53.106;7.030;2023-01-28T10:18:12;11.07;;;9.63;;
51654;SDS011;37732;53.106;7.030;2023-01-28T10:20:42;11.98;;;10.77;;
51654;SDS011;37732;53.106;7.030;2023-01-28T10:23:38;10.65;;;9.43;;
51654;SDS011;37732;53.106;7.030;2023-01-28T10:26:15;12.65;;;9.68;;
51654;SDS011;37732;53.106;7.030;2023-01-28T10:29:20;10.93;;;9.82;;
51654;SDS011;37732;53.106;7.030;2023-01-28T10:31:54;11.90;;;9.40;;
51654;SDS011;37732;53.106;7.030;2023-01-28T10:34:25;11.15;;;9.27;;
51654;SDS011;37732;53.106;7.030;2023-01-28T10:36:51;10.43;;;8.85;;
51654;SDS011;37732;53.106;7.030;2023-01-28T10:39:19;13.50;;;10.07;;
51654;SDS011;37732;53.106;7.030;2023-01-28T10:41:46;11.57;;;8.40;;
51654;SDS011;37732;53.106;7.030;2023-01-28T10:44:15;10.27;;;8.35;;
51654;SDS011;37732;53.106;7.030;2023-01-28T10:46:51;11.02;;;8.30;;
51654;SDS011;37732;53.106;7.030;2023-01-28T10:49:25;9.40;;;8.40;;
51654;SDS011;37732;53.106;7.030;2023-01-28T10:51:53;9.85;;;8.85;;
51654;SDS011;37732;53.106;7.030;2023-01-28T10:54:26;9.90;;;8.70;;
51654;SDS011;37732;53.106;7.030;2023-01-28T10:59:30;11.05;;;9.15;;
51654;SDS011;37732;53.106;7.030;2023-01-28T11:02:00;11.57;;;9.10;;
51654;SDS011;37732;53.106;7.030;2023-01-28T11:04:43;9.80;;;8.45;;
51654;SDS011;37732;53.106;7.030;2023-01-28T11:07:19;9.30;;;8.00;;
51654;SDS011;37732;53.106;7.030;2023-01-28T11:09:46;9.27;;;8.13;;
51654;SDS011;37732;53.106;7.030;2023-01-28T11:12:21;8.95;;;7.45;;
51654;SDS011;37732;53.106;7.030;2023-01-28T11:17:19;9.45;;;7.55;;
51654;SDS011;37732;53.106;7.030;2023-01-28T11:19:48;8.98;;;7.65;;
51654;SDS011;37732;53.106;7.030;2023-01-28T11:25:00;8.50;;;7.30;;
51654;SDS011;37732;53.106;7.030;2023-01-28T11:27:29;10.45;;;7.65;;
51654;SDS011;37732;53.106;7.030;2023-01-28T11:29:57;8.57;;;7.43;;
51654;SDS011;37732;53.106;7.030;2023-01-28T11:32:27;9.57;;;7.72;;
51654;SDS011;37732;53.106;7.030;2023-01-28T11:34:54;9.80;;;7.82;;
51654;SDS011;37732;53.106;7.030;2023-01-28T11:37:22;8.90;;;6.88;;
51654;SDS011;37732;53.106;7.030;2023-01-28T11:40:02;8.57;;;6.57;;
51654;SDS011;37732;53.106;7.030;2023-01-28T11:42:41;9.10;;;7.35;;
51654;SDS011;37732;53.106;7.030;2023-01-28T11:45:14;8.52;;;6.75;;
51654;SDS011;37732;53.106;7.030;2023-01-28T11:48:48;9.50;;;6.82;;
51654;SDS011;37732;53.106;7.030;2023-01-28T11:51:03;7.25;;;6.18;;
51654;SDS011;37732;53.106;7.030;2023-01-28T11:53:47;8.93;;;7.05;;
51654;SDS011;37732;53.106;7.030;2023-01-28T11:59:16;12.50;;;7.35;;
51654;SDS011;37732;53.106;7.030;2023-01-28T12:02:24;7.32;;;6.43;;
51654;SDS011;37732;53.106;7.030;2023-01-28T12:10:28;8.65;;;6.28;;
51654;SDS011;37732;53.106;7.030;2023-01-28T12:23:54;9.25;;;7.05;;
51654;SDS011;37732;53.106;7.030;2023-01-28T12:40:20;9.75;;;6.43;;
51654;SDS011;37732;53.106;7.030;2023-01-28T12:45:59;9.32;;;7.45;;
51654;SDS011;37732;53.106;7.030;2023-01-28T12:48:39;9.13;;;7.20;;
51654;SDS011;37732;53.106;7.030;2023-01-28T12:51:12;10.38;;;7.70;;
51654;SDS011;37732;53.106;7.030;2023-01-28T12:56:32;9.45;;;7.38;;
51654;SDS011;37732;53.106;7.030;2023-01-28T13:01:46;8.40;;;6.63;;
51654;SDS011;37732;53.106;7.030;2023-01-28T13:04:27;9.15;;;6.93;;
51654;SDS011;37732;53.106;7.030;2023-01-28T13:09:34;9.38;;;7.25;;
51654;SDS011;37732;53.106;7.030;2023-01-28T13:12:03;13.25;;;7.38;;
51654;SDS011;37732;53.106;7.030;2023-01-28T13:14:30;10.07;;;6.70;;
51654;SDS011;37732;53.106;7.030;2023-01-28T13:17:07;9.23;;;7.20;;
51654;SDS011;37732;53.106;7.030;2023-01-28T13:19:35;11.45;;;7.82;;
51654;SDS011;37732;53.106;7.030;2023-01-28T13:22:10;9.38;;;7.25;;
51654;SDS011;37732;53.106;7.030;2023-01-28T13:24:37;9.20;;;7.88;;
51654;SDS011;37732;53.106;7.030;2023-01-28T13:27:10;8.95;;;7.45;;
51654;SDS011;37732;53.106;7.030;2023-01-28T13:29:46;11.75;;;7.97;;
51654;SDS011;37732;53.106;7.030;2023-01-28T13:32:29;10.52;;;8.45;;
51654;SDS011;37732;53.106;7.030;2023-01-28T13:34:59;8.98;;;7.68;;
51654;SDS011;37732;53.106;7.030;2023-01-28T13:37:37;9.23;;;7.72;;
51654;SDS011;37732;53.106;7.030;2023-01-28T13:42:36;10.10;;;7.53;;
51654;SDS011;37732;53.106;7.030;2023-01-28T13:47:42;10.50;;;8.45;;
51654;SDS011;37732;53.106;7.030;2023-01-28T13:50:11;11.02;;;7.70;;
51654;SDS011;37732;53.106;7.030;2023-01-28T13:52:52;10.57;;;8.48;;
51654;SDS011;37732;53.106;7.030;2023-01-28T13:55:23;9.30;;;8.05;;
51654;SDS011;37732;53.106;7.030;2023-01-28T14:00:31;8.82;;;7.47;;
51654;SDS011;37732;53.106;7.030;2023-01-28T14:06:19;9.90;;;7.63;;
51654;SDS011;37732;53.106;7.030;2023-01-28T14:11:53;9.25;;;7.47;;
51654;SDS011;37732;53.106;7.030;2023-01-28T14:19:57;8.93;;;6.18;;
51654;SDS011;37732;53.106;7.030;2023-01-28T14:22:23;12.02;;;7.45;;
51654;SDS011;37732;53.106;7.030;2023-01-28T14:24:50;10.52;;;7.07;;
51654;SDS011;37732;53.106;7.030;2023-01-28T14:27:34;9.00;;;6.95;;
51654;SDS011;37732;53.106;7.030;2023-01-28T14:32:49;9.73;;;7.60;;
51654;SDS011;37732;53.106;7.030;2023-01-28T14:35:18;8.98;;;7.28;;
51654;SDS011;37732;53.106;7.030;2023-01-28T14:37:55;12.52;;;7.75;;
51654;SDS011;37732;53.106;7.030;2023-01-28T14:40:23;12.65;;;8.68;;
51654;SDS011;37732;53.106;7.030;2023-01-28T14:42:51;10.80;;;7.03;;
51654;SDS011;37732;53.106;7.030;2023-01-28T14:56:39;10.77;;;8.05;;
51654;SDS011;37732;53.106;7.030;2023-01-28T14:59:19;11.00;;;8.35;;
51654;SDS011;37732;53.106;7.030;2023-01-28T15:01:54;12.23;;;9.40;;
51654;SDS011;37732;53.106;7.030;2023-01-28T15:04:26;10.57;;;8.23;;
51654;SDS011;37732;53.106;7.030;2023-01-28T15:07:15;13.88;;;9.00;;
51654;SDS011;37732;53.106;7.030;2023-01-28T15:09:45;13.07;;;8.80;;
51654;SDS011;37732;53.106;7.030;2023-01-28T15:12:12;10.48;;;8.68;;
51654;SDS011;37732;53.106;7.030;2023-01-28T15:14:39;10.52;;;8.55;;
51654;SDS011;37732;53.106;7.030;2023-01-28T15:17:11;10.27;;;8.73;;
51654;SDS011;37732;53.106;7.030;2023-01-28T15:19:45;11.57;;;9.13;;
51654;SDS011;37732;53.106;7.030;2023-01-28T15:22:12;13.25;;;8.35;;
51654;SDS011;37732;53.106;7.030;2023-01-28T15:24:39;11.15;;;9.20;;
51654;SDS011;37732;53.106;7.030;2023-01-28T15:27:16;10.45;;;7.65;;
51654;SDS011;37732;53.106;7.030;2023-01-28T15:29:50;11.60;;;8.63;;
51654;SDS011;37732;53.106;7.030;2023-01-28T15:32:25;11.55;;;8.30;;
51654;SDS011;37732;53.106;7.030;2023-01-28T15:34:52;11.77;;;9.23;;
51654;SDS011;37732;53.106;7.030;2023-01-28T15:37:18;11.90;;;8.40;;
51654;SDS011;37732;53.106;7.030;2023-01-28T15:39:44;11.75;;;8.98;;
51654;SDS011;37732;53.106;7.030;2023-01-28T15:42:16;14.50;;;9.43;;
51654;SDS011;37732;53.106;7.030;2023-01-28T15:44:46;11.93;;;9.13;;
51654;SDS011;37732;53.106;7.030;2023-01-28T15:47:16;13.52;;;9.73;;
51654;SDS011;37732;53.106;7.030;2023-01-28T15:49:47;11.70;;;9.00;;
51654;SDS011;37732;53.106;7.030;2023-01-28T15:52:16;11.27;;;9.40;;
51654;SDS011;37732;53.106;7.030;2023-01-28T15:54:43;13.68;;;9.70;;
51654;SDS011;37732;53.106;7.030;2023-01-28T15:57:26;13.25;;;9.43;;
51654;SDS011;37732;53.106;7.030;2023-01-28T16:00:14;12.48;;;10.15;;
51654;SDS011;37732;53.106;7.030;2023-01-28T16:02:48;13.20;;;9.57;;
51654;SDS011;37732;53.106;7.030;2023-01-28T16:05:26;13.75;;;10.13;;
51654;SDS011;37732;53.106;7.030;2023-01-28T16:07:55;12.93;;;9.60;;
51654;SDS011;37732;53.106;7.030;2023-01-28T16:10:24;11.57;;;9.00;;
51654;SDS011;37732;53.106;7.030;2023-01-28T16:12:54;12.57;;;9.57;;
51654;SDS011;37732;53.106;7.030;2023-01-28T16:15:47;13.02;;;9.40;;
51654;SDS011;37732;53.106;7.030;2023-01-28T16:21:02;11.23;;;9.85;;
51654;SDS011;37732;53.106;7.030;2023-01-28T16:23:31;12.25;;;9.20;;
51654;SDS011;37732;53.106;7.030;2023-01-28T16:26:00;11.82;;;9.45;;
51654;SDS011;37732;53.106;7.030;2023-01-28T16:28:28;10.48;;;9.02;;
51654;SDS011;37732;53.106;7.030;2023-01-28T16:30:55;11.15;;;8.52;;
51654;SDS011;37732;53.106;7.030;2023-01-28T16:33:22;13.43;;;10.35;;
51654;SDS011;37732;53.106;7.030;2023-01-28T16:35:49;10.90;;;9.38;;
51654;SDS011;37732;53.106;7.030;2023-01-28T16:38:16;11.80;;;9.77;;
51654;SDS011;37732;53.106;7.030;2023-01-28T16:40:42;11.15;;;9.07;;
51654;SDS011;37732;53.106;7.030;2023-01-28T16:43:12;11.98;;;8.65;;
51654;SDS011;37732;53.106;7.030;2023-01-28T16:45:40;12.43;;;10.02;;
51654;SDS011;37732;53.106;7.030;2023-01-28T16:48:06;10.82;;;9.07;;
51654;SDS011;37732;53.106;7.030;2023-01-28T16:50:32;11.27;;;9.20;;
51654;SDS011;37732;53.106;7.030;2023-01-28T16:52:58;11.43;;;8.50;;
51654;SDS011;37732;53.106;7.030;2023-01-28T16:55:25;11.40;;;7.70;;
51654;SDS011;37732;53.106;7.030;2023-01-28T16:57:54;11.07;;;8.18;;
51654;SDS011;37732;53.106;7.030;2023-01-28T17:00:24;11.02;;;8.20;;
51654;SDS011;37732;53.106;7.030;2023-01-28T17:02:51;12.27;;;9.00;;